Keller, Washington
Current Conditions -  °F | °C
As of 12:53 AM on Saturday 22 Nov 2014 (Local Time) from KOMK Reporting Station
Overcast Overcast  
Wind Chill: 25°   Ceiling: 2200
Heat Index: 33°   Visibility: 9mi
Dew Point: 31°   Wind: 9mph
Humidity: 92%   Direction: 180°S
Pressure: 29.39"   Gusts: NA
Location:  48.08°N, 118.69°W
Report Text: KOMK 220853Z AUTO 18008KT 9SM OVC022 01/M01 A2939 RMK AO2 SLP963 60000 I3001 T00061006 53002
Loading
Personal Weather Stations






























Interactive Weather Map New forecast layout! Learn more

10-Day Weather Forecast

Advertisements
Track Severe Weather on mobile